Terminal Aerodrome Forecast
Issued by NWS

Home | Current Version | Previous Version | Text Only | Print | Product List | Glossary Off
Versions: 1 2 3 4 5 6 7 8 9 10 11 12 13 14 15 16

000
FTUS43 KBIS 292320
TAFMOT
TAF
KMOT 292320Z 3000/3024 27017G24KT P6SM FEW070
     FM300100 28011KT P6SM SKC
     FM300400 26007KT P6SM SKC
     FM300700 25009KT P6SM FEW080 SCT100
     FM301500 28012G17KT P6SM SKC=

USA.gov is the U.S. government's official web portal to all federal, state and local government web resources and services.